sensor_id;sensor_type;location;lat;lon;timestamp;pressure;altitude;pressure_sealevel;temperature;humidity
69239;BME280;56349;51.816;-0.026;2022-08-19T00:00:53;100678.19;;;29.66;29.87
69239;BME280;56349;51.816;-0.026;2022-08-19T00:03:19;100676.06;;;29.56;29.96
69239;BME280;56349;51.816;-0.026;2022-08-19T00:05:45;100682.54;;;29.48;30.05
69239;BME280;56349;51.816;-0.026;2022-08-19T00:08:11;100682.28;;;29.62;30.13
69239;BME280;56349;51.816;-0.026;2022-08-19T00:10:37;100682.33;;;29.76;30.20
69239;BME280;56349;51.816;-0.026;2022-08-19T00:13:03;100677.50;;;29.23;30.32
69239;BME280;56349;51.816;-0.026;2022-08-19T00:15:29;100682.43;;;29.60;30.40
69239;BME280;56349;51.816;-0.026;2022-08-19T00:17:54;100683.56;;;29.53;30.46
69239;BME280;56349;51.816;-0.026;2022-08-19T00:20:21;100685.19;;;29.01;30.54
69239;BME280;56349;51.816;-0.026;2022-08-19T00:22:46;100683.20;;;29.17;30.62
69239;BME280;56349;51.816;-0.026;2022-08-19T00:25:12;100679.42;;;29.36;30.67
69239;BME280;56349;51.816;-0.026;2022-08-19T00:27:38;100680.10;;;29.30;30.73
69239;BME280;56349;51.816;-0.026;2022-08-19T00:30:04;100679.00;;;29.04;30.79
69239;BME280;56349;51.816;-0.026;2022-08-19T00:32:29;100675.86;;;29.20;30.84
69239;BME280;56349;51.816;-0.026;2022-08-19T00:34:54;100674.22;;;29.15;30.90
69239;BME280;56349;51.816;-0.026;2022-08-19T00:37:20;100680.71;;;29.10;30.96
69239;BME280;56349;51.816;-0.026;2022-08-19T00:39:45;100679.49;;;29.04;31.01
69239;BME280;56349;51.816;-0.026;2022-08-19T00:42:11;100681.08;;;29.00;31.07
69239;BME280;56349;51.816;-0.026;2022-08-19T00:44:37;100675.87;;;28.96;31.12
69239;BME280;56349;51.816;-0.026;2022-08-19T00:47:03;100666.43;;;28.93;31.15
69239;BME280;56349;51.816;-0.026;2022-08-19T00:49:32;100664.98;;;28.90;31.18
69239;BME280;56349;51.816;-0.026;2022-08-19T00:51:57;100666.16;;;28.87;31.21
69239;BME280;56349;51.816;-0.026;2022-08-19T00:54:19;100669.44;;;28.84;31.24
69239;BME280;56349;51.816;-0.026;2022-08-19T00:56:46;100672.64;;;28.80;31.26
69239;BME280;56349;51.816;-0.026;2022-08-19T00:59:10;100668.79;;;29.02;31.31
69239;BME280;56349;51.816;-0.026;2022-08-19T01:01:36;100667.71;;;29.00;31.34
69239;BME280;56349;51.816;-0.026;2022-08-19T01:04:02;100662.83;;;28.70;31.36
69239;BME280;56349;51.816;-0.026;2022-08-19T01:06:28;100660.01;;;28.67;31.40
69239;BME280;56349;51.816;-0.026;2022-08-19T01:08:54;100657.76;;;28.91;31.42
69239;BME280;56349;51.816;-0.026;2022-08-19T01:11:20;100655.25;;;28.88;31.45
69239;BME280;56349;51.816;-0.026;2022-08-19T01:13:46;100657.09;;;28.85;31.48
69239;BME280;56349;51.816;-0.026;2022-08-19T01:16:12;100656.69;;;28.55;31.51
69239;BME280;56349;51.816;-0.026;2022-08-19T01:18:39;100658.55;;;28.80;31.52
69239;BME280;56349;51.816;-0.026;2022-08-19T01:21:08;100656.33;;;28.77;31.55
69239;BME280;56349;51.816;-0.026;2022-08-19T01:23:28;100658.65;;;28.75;31.57
69239;BME280;56349;51.816;-0.026;2022-08-19T01:25:54;100658.83;;;28.47;31.57
69239;BME280;56349;51.816;-0.026;2022-08-19T01:28:23;100659.42;;;28.95;31.57
69239;BME280;56349;51.816;-0.026;2022-08-19T01:30:45;100658.88;;;28.71;31.58
69239;BME280;56349;51.816;-0.026;2022-08-19T01:33:11;100656.68;;;28.43;31.59
69239;BME280;56349;51.816;-0.026;2022-08-19T01:35:36;100657.73;;;28.67;31.60
69239;BME280;56349;51.816;-0.026;2022-08-19T01:38:05;100660.98;;;28.39;31.61
69239;BME280;56349;51.816;-0.026;2022-08-19T01:40:29;100662.66;;;28.63;31.65
69239;BME280;56349;51.816;-0.026;2022-08-19T01:42:53;100664.74;;;28.35;31.65
69239;BME280;56349;51.816;-0.026;2022-08-19T01:45:19;100666.35;;;28.59;31.67
69239;BME280;56349;51.816;-0.026;2022-08-19T01:47:44;100663.90;;;28.29;31.68
69239;BME280;56349;51.816;-0.026;2022-08-19T01:50:11;100660.95;;;28.54;31.70
69239;BME280;56349;51.816;-0.026;2022-08-19T01:52:36;100655.36;;;28.25;31.70
69239;BME280;56349;51.816;-0.026;2022-08-19T01:55:02;100653.65;;;28.73;31.71
69239;BME280;56349;51.816;-0.026;2022-08-19T01:57:27;100651.88;;;28.49;31.72
69239;BME280;56349;51.816;-0.026;2022-08-19T01:59:52;100652.28;;;28.70;31.75
69239;BME280;56349;51.816;-0.026;2022-08-19T02:02:17;100656.90;;;28.18;31.75
69239;BME280;56349;51.816;-0.026;2022-08-19T02:04:43;100659.14;;;28.43;31.77
69239;BME280;56349;51.816;-0.026;2022-08-19T02:07:09;100657.84;;;28.41;31.78
69239;BME280;56349;51.816;-0.026;2022-08-19T02:09:35;100652.30;;;28.38;31.81
69239;BME280;56349;51.816;-0.026;2022-08-19T02:12:00;100652.19;;;28.10;31.82
69239;BME280;56349;51.816;-0.026;2022-08-19T02:14:26;100658.00;;;28.57;31.83
69239;BME280;56349;51.816;-0.026;2022-08-19T02:16:52;100657.18;;;28.55;31.84
69239;BME280;56349;51.816;-0.026;2022-08-19T02:19:18;100657.98;;;28.31;31.85
69239;BME280;56349;51.816;-0.026;2022-08-19T02:21:44;100663.03;;;28.32;31.86
69239;BME280;56349;51.816;-0.026;2022-08-19T02:24:10;100661.63;;;28.31;31.86
69239;BME280;56349;51.816;-0.026;2022-08-19T02:26:36;100662.65;;;28.30;31.87
69239;BME280;56349;51.816;-0.026;2022-08-19T02:29:03;100662.19;;;28.50;31.88
69239;BME280;56349;51.816;-0.026;2022-08-19T02:31:28;100667.00;;;28.26;31.89
69239;BME280;56349;51.816;-0.026;2022-08-19T02:33:55;100669.83;;;28.24;31.91
69239;BME280;56349;51.816;-0.026;2022-08-19T02:36:20;100672.30;;;28.23;31.91
69239;BME280;56349;51.816;-0.026;2022-08-19T02:38:47;100675.15;;;28.45;31.92
69239;BME280;56349;51.816;-0.026;2022-08-19T02:41:14;100678.07;;;28.23;31.92
69239;BME280;56349;51.816;-0.026;2022-08-19T02:43:37;100683.02;;;28.45;31.91
69239;BME280;56349;51.816;-0.026;2022-08-19T02:48:29;100686.74;;;28.42;31.93
69239;BME280;56349;51.816;-0.026;2022-08-19T02:50:54;100681.09;;;28.41;31.93
69239;BME280;56349;51.816;-0.026;2022-08-19T02:53:21;100680.26;;;28.16;31.96
69239;BME280;56349;51.816;-0.026;2022-08-19T02:55:46;100680.44;;;28.39;31.94
69239;BME280;56349;51.816;-0.026;2022-08-19T02:58:11;100680.26;;;28.37;31.95
69239;BME280;56349;51.816;-0.026;2022-08-19T03:00:42;100683.95;;;28.13;31.97
69239;BME280;56349;51.816;-0.026;2022-08-19T03:03:03;100683.32;;;28.33;31.98
69239;BME280;56349;51.816;-0.026;2022-08-19T03:05:28;100684.54;;;28.32;31.99
69239;BME280;56349;51.816;-0.026;2022-08-19T03:07:55;100683.09;;;28.35;31.96
69239;BME280;56349;51.816;-0.026;2022-08-19T03:10:20;100682.48;;;28.33;31.97
69239;BME280;56349;51.816;-0.026;2022-08-19T03:12:46;100683.24;;;28.30;31.99
69239;BME280;56349;51.816;-0.026;2022-08-19T03:15:12;100682.40;;;28.27;32.01
69239;BME280;56349;51.816;-0.026;2022-08-19T03:17:38;100682.47;;;28.04;32.03
69239;BME280;56349;51.816;-0.026;2022-08-19T03:20:05;100681.89;;;28.04;32.03
69239;BME280;56349;51.816;-0.026;2022-08-19T03:22:29;100684.88;;;28.24;32.05
69239;BME280;56349;51.816;-0.026;2022-08-19T03:24:55;100685.52;;;28.22;32.07
69239;BME280;56349;51.816;-0.026;2022-08-19T03:27:21;100686.90;;;27.99;32.08
69239;BME280;56349;51.816;-0.026;2022-08-19T03:29:46;100685.62;;;28.20;32.12
69239;BME280;56349;51.816;-0.026;2022-08-19T03:32:12;100684.40;;;28.19;32.14
69239;BME280;56349;51.816;-0.026;2022-08-19T03:34:38;100682.02;;;27.98;32.17
69239;BME280;56349;51.816;-0.026;2022-08-19T03:37:06;100680.78;;;28.21;32.21
69239;BME280;56349;51.816;-0.026;2022-08-19T03:39:30;100680.07;;;28.03;32.22
69239;BME280;56349;51.816;-0.026;2022-08-19T03:41:56;100678.02;;;28.12;32.20
69239;BME280;56349;51.816;-0.026;2022-08-19T03:44:22;100678.11;;;28.24;32.14
69239;BME280;56349;51.816;-0.026;2022-08-19T03:46:50;100676.11;;;28.60;32.05
69239;BME280;56349;51.816;-0.026;2022-08-19T03:49:14;100677.45;;;28.27;31.91
69239;BME280;56349;51.816;-0.026;2022-08-19T03:51:39;100675.80;;;28.71;31.73
69239;BME280;56349;51.816;-0.026;2022-08-19T03:54:07;100680.04;;;28.57;31.56
69239;BME280;56349;51.816;-0.026;2022-08-19T03:56:31;100682.02;;;28.67;31.40
69239;BME280;56349;51.816;-0.026;2022-08-19T03:58:58;100686.79;;;28.74;31.27
69239;BME280;56349;51.816;-0.026;2022-08-19T04:01:23;100685.51;;;28.79;31.15
69239;BME280;56349;51.816;-0.026;2022-08-19T04:03:47;100686.63;;;28.82;31.07
69239;BME280;56349;51.816;-0.026;2022-08-19T04:06:13;100686.00;;;28.82;31.00
69239;BME280;56349;51.816;-0.026;2022-08-19T04:08:38;100682.94;;;28.80;30.97
69239;BME280;56349;51.816;-0.026;2022-08-19T04:11:07;100677.85;;;28.75;30.96
69239;BME280;56349;51.816;-0.026;2022-08-19T04:13:29;100678.81;;;28.71;30.97
69239;BME280;56349;51.816;-0.026;2022-08-19T04:15:54;100680.67;;;28.67;30.98
69239;BME280;56349;51.816;-0.026;2022-08-19T04:18:20;100676.40;;;28.62;31.01
69239;BME280;56349;51.816;-0.026;2022-08-19T04:20:47;100679.11;;;28.58;31.02
69239;BME280;56349;51.816;-0.026;2022-08-19T04:23:12;100683.09;;;28.80;31.03
69239;BME280;56349;51.816;-0.026;2022-08-19T04:25:39;100685.22;;;28.49;31.05
69239;BME280;56349;51.816;-0.026;2022-08-19T04:28:03;100685.31;;;28.70;31.10
69239;BME280;56349;51.816;-0.026;2022-08-19T04:30:29;100684.75;;;28.64;31.14
69239;BME280;56349;51.816;-0.026;2022-08-19T04:32:54;100684.06;;;28.30;31.20
69239;BME280;56349;51.816;-0.026;2022-08-19T04:35:20;100684.79;;;28.50;31.24
69239;BME280;56349;51.816;-0.026;2022-08-19T04:37:46;100683.51;;;28.20;31.29
69239;BME280;56349;51.816;-0.026;2022-08-19T04:40:12;100680.99;;;28.42;31.33
69239;BME280;56349;51.816;-0.026;2022-08-19T04:42:38;100682.40;;;28.60;31.37
69239;BME280;56349;51.816;-0.026;2022-08-19T04:45:05;100686.28;;;28.07;31.40
69239;BME280;56349;51.816;-0.026;2022-08-19T04:47:29;100686.86;;;28.30;31.43
69239;BME280;56349;51.816;-0.026;2022-08-19T04:49:55;100687.76;;;28.50;31.46
69239;BME280;56349;51.816;-0.026;2022-08-19T04:52:21;100695.56;;;28.45;31.51
69239;BME280;56349;51.816;-0.026;2022-08-19T04:54:47;100700.52;;;27.91;31.56
69239;BME280;56349;51.816;-0.026;2022-08-19T04:57:12;100698.14;;;28.35;31.60
69239;BME280;56349;51.816;-0.026;2022-08-19T04:59:39;100699.16;;;28.31;31.64
69239;BME280;56349;51.816;-0.026;2022-08-19T05:02:04;100698.04;;;28.09;31.65
69239;BME280;56349;51.816;-0.026;2022-08-19T05:04:29;100694.54;;;28.29;31.67
69239;BME280;56349;51.816;-0.026;2022-08-19T05:06:55;100697.09;;;28.26;31.69
69239;BME280;56349;51.816;-0.026;2022-08-19T05:09:20;100701.00;;;28.24;31.72
69239;BME280;56349;51.816;-0.026;2022-08-19T05:11:46;100708.36;;;28.00;31.75
69239;BME280;56349;51.816;-0.026;2022-08-19T05:14:12;100710.60;;;27.71;31.78
69239;BME280;56349;51.816;-0.026;2022-08-19T05:16:39;100715.96;;;28.17;31.81
69239;BME280;56349;51.816;-0.026;2022-08-19T05:19:04;100719.56;;;27.93;31.82
69239;BME280;56349;51.816;-0.026;2022-08-19T05:21:30;100721.18;;;28.15;31.85
69239;BME280;56349;51.816;-0.026;2022-08-19T05:23:55;100723.11;;;28.10;31.90
69239;BME280;56349;51.816;-0.026;2022-08-19T05:26:21;100724.23;;;27.86;31.91
69239;BME280;56349;51.816;-0.026;2022-08-19T05:28:47;100718.89;;;28.06;31.92
69239;BME280;56349;51.816;-0.026;2022-08-19T05:31:12;100715.86;;;28.04;31.94
69239;BME280;56349;51.816;-0.026;2022-08-19T05:33:38;100715.23;;;28.02;31.97
69239;BME280;56349;51.816;-0.026;2022-08-19T05:36:04;100716.56;;;28.02;31.98
69239;BME280;56349;51.816;-0.026;2022-08-19T05:38:30;100721.08;;;28.00;31.99
69239;BME280;56349;51.816;-0.026;2022-08-19T05:40:56;100721.81;;;28.00;32.00
69239;BME280;56349;51.816;-0.026;2022-08-19T05:43:21;100723.73;;;27.97;32.03
69239;BME280;56349;51.816;-0.026;2022-08-19T05:45:47;100727.36;;;27.95;32.04
69239;BME280;56349;51.816;-0.026;2022-08-19T05:48:13;100733.97;;;27.95;32.03
69239;BME280;56349;51.816;-0.026;2022-08-19T05:50:40;100735.00;;;27.96;32.04
69239;BME280;56349;51.816;-0.026;2022-08-19T05:53:03;100735.72;;;27.74;32.03
69239;BME280;56349;51.816;-0.026;2022-08-19T05:55:28;100734.06;;;27.95;32.04
69239;BME280;56349;51.816;-0.026;2022-08-19T05:57:54;100732.81;;;27.94;32.08
69239;BME280;56349;51.816;-0.026;2022-08-19T06:00:20;100734.07;;;27.70;32.11
69239;BME280;56349;51.816;-0.026;2022-08-19T06:02:46;100735.83;;;27.92;32.08
69239;BME280;56349;51.816;-0.026;2022-08-19T06:05:11;100734.52;;;27.69;32.08
69239;BME280;56349;51.816;-0.026;2022-08-19T06:07:38;100736.21;;;27.91;32.08
69239;BME280;56349;51.816;-0.026;2022-08-19T06:10:04;100734.16;;;27.89;32.10
69239;BME280;56349;51.816;-0.026;2022-08-19T06:12:30;100734.90;;;27.90;32.10
69239;BME280;56349;51.816;-0.026;2022-08-19T06:14:55;100733.90;;;27.66;32.11
69239;BME280;56349;51.816;-0.026;2022-08-19T06:17:21;100735.03;;;27.88;32.11
69239;BME280;56349;51.816;-0.026;2022-08-19T06:19:47;100742.23;;;27.86;32.13
69239;BME280;56349;51.816;-0.026;2022-08-19T06:22:12;100744.01;;;27.85;32.13
69239;BME280;56349;51.816;-0.026;2022-08-19T06:24:38;100744.00;;;27.84;32.11
69239;BME280;56349;51.816;-0.026;2022-08-19T06:27:04;100740.08;;;27.82;32.13
69239;BME280;56349;51.816;-0.026;2022-08-19T06:29:30;100743.16;;;27.82;32.14
69239;BME280;56349;51.816;-0.026;2022-08-19T06:31:58;100745.47;;;27.81;32.13
69239;BME280;56349;51.816;-0.026;2022-08-19T06:34:22;100744.01;;;27.81;32.13
69239;BME280;56349;51.816;-0.026;2022-08-19T06:36:49;100740.11;;;27.81;32.12
69239;BME280;56349;51.816;-0.026;2022-08-19T06:39:15;100737.39;;;27.81;32.11
69239;BME280;56349;51.816;-0.026;2022-08-19T06:41:40;100735.46;;;27.79;32.10
69239;BME280;56349;51.816;-0.026;2022-08-19T06:44:04;100739.31;;;27.79;32.11
69239;BME280;56349;51.816;-0.026;2022-08-19T06:46:29;100742.23;;;28.07;32.10
69239;BME280;56349;51.816;-0.026;2022-08-19T06:48:54;100747.81;;;27.60;32.09
69239;BME280;56349;51.816;-0.026;2022-08-19T06:51:22;100752.72;;;27.83;32.08
69239;BME280;56349;51.816;-0.026;2022-08-19T06:53:46;100756.16;;;27.82;32.21
69239;BME280;56349;51.816;-0.026;2022-08-19T06:56:11;100761.89;;;27.84;32.24
69239;BME280;56349;51.816;-0.026;2022-08-19T06:58:37;100759.09;;;27.62;32.45
69239;BME280;56349;51.816;-0.026;2022-08-19T07:01:04;100761.29;;;27.62;32.68
69239;BME280;56349;51.816;-0.026;2022-08-19T07:03:31;100761.98;;;27.86;32.95
69239;BME280;56349;51.816;-0.026;2022-08-19T07:05:54;100765.02;;;27.91;33.34
69239;BME280;56349;51.816;-0.026;2022-08-19T07:08:20;100766.03;;;28.01;33.61
69239;BME280;56349;51.816;-0.026;2022-08-19T07:10:46;100766.99;;;28.15;33.70
69239;BME280;56349;51.816;-0.026;2022-08-19T07:13:11;100772.49;;;28.08;33.70
69239;BME280;56349;51.816;-0.026;2022-08-19T07:15:37;100776.68;;;28.01;33.65
69239;BME280;56349;51.816;-0.026;2022-08-19T07:18:03;100779.43;;;28.49;33.58
69239;BME280;56349;51.816;-0.026;2022-08-19T07:20:29;100779.60;;;28.45;33.43
69239;BME280;56349;51.816;-0.026;2022-08-19T07:22:54;100783.86;;;28.46;33.26
69239;BME280;56349;51.816;-0.026;2022-08-19T07:25:20;100785.55;;;28.93;33.04
69239;BME280;56349;51.816;-0.026;2022-08-19T07:27:48;100781.42;;;28.93;32.81
69239;BME280;56349;51.816;-0.026;2022-08-19T07:30:12;100781.83;;;29.16;32.56
69239;BME280;56349;51.816;-0.026;2022-08-19T07:32:36;100775.21;;;29.59;32.28
69239;BME280;56349;51.816;-0.026;2022-08-19T07:35:02;100777.95;;;29.36;31.99
69239;BME280;56349;51.816;-0.026;2022-08-19T07:37:28;100775.37;;;29.56;31.69
69239;BME280;56349;51.816;-0.026;2022-08-19T07:39:54;100782.22;;;29.51;31.38
69239;BME280;56349;51.816;-0.026;2022-08-19T07:42:20;100788.01;;;29.71;31.06
69239;BME280;56349;51.816;-0.026;2022-08-19T07:44:45;100786.81;;;29.68;30.76
69239;BME280;56349;51.816;-0.026;2022-08-19T07:47:10;100786.98;;;29.86;30.43
69239;BME280;56349;51.816;-0.026;2022-08-19T07:49:36;100783.77;;;29.99;30.21
69239;BME280;56349;51.816;-0.026;2022-08-19T07:52:05;100784.38;;;30.10;30.04
69239;BME280;56349;51.816;-0.026;2022-08-19T07:54:31;100790.87;;;30.24;29.86
69239;BME280;56349;51.816;-0.026;2022-08-19T07:56:54;100791.00;;;30.36;29.68
69239;BME280;56349;51.816;-0.026;2022-08-19T07:59:22;100788.31;;;30.48;29.48
69239;BME280;56349;51.816;-0.026;2022-08-19T08:01:46;100795.42;;;30.59;29.26
69239;BME280;56349;51.816;-0.026;2022-08-19T08:04:11;100795.97;;;30.45;29.01
69239;BME280;56349;51.816;-0.026;2022-08-19T08:06:37;100795.18;;;30.52;28.84
69239;BME280;56349;51.816;-0.026;2022-08-19T08:09:04;100796.88;;;30.68;28.09
69239;BME280;56349;51.816;-0.026;2022-08-19T08:11:29;100792.48;;;30.34;27.77
69239;BME280;56349;51.816;-0.026;2022-08-19T08:13:54;100798.44;;;30.25;27.51
69239;BME280;56349;51.816;-0.026;2022-08-19T08:16:20;100796.53;;;29.98;27.40
69239;BME280;56349;51.816;-0.026;2022-08-19T08:18:46;100800.66;;;30.14;27.39
69239;BME280;56349;51.816;-0.026;2022-08-19T08:21:12;100804.18;;;30.43;27.67
69239;BME280;56349;51.816;-0.026;2022-08-19T08:23:37;100802.76;;;30.21;27.77
69239;BME280;56349;51.816;-0.026;2022-08-19T08:26:03;100802.64;;;30.51;27.90
69239;BME280;56349;51.816;-0.026;2022-08-19T08:28:29;100800.69;;;30.23;27.64
69239;BME280;56349;51.816;-0.026;2022-08-19T08:30:55;100796.70;;;30.48;27.23
69239;BME280;56349;51.816;-0.026;2022-08-19T08:33:23;100793.83;;;29.96;27.06
69239;BME280;56349;51.816;-0.026;2022-08-19T08:35:45;100795.37;;;30.42;26.97
69239;BME280;56349;51.816;-0.026;2022-08-19T08:38:11;100800.13;;;29.92;26.80
69239;BME280;56349;51.816;-0.026;2022-08-19T08:40:43;100800.79;;;29.87;26.66
69239;BME280;56349;51.816;-0.026;2022-08-19T08:43:07;100800.80;;;30.08;26.63
69239;BME280;56349;51.816;-0.026;2022-08-19T08:45:28;100800.24;;;30.07;26.55
69239;BME280;56349;51.816;-0.026;2022-08-19T08:47:54;100804.88;;;29.95;26.54
69239;BME280;56349;51.816;-0.026;2022-08-19T08:50:21;100802.96;;;30.57;26.39
69239;BME280;56349;51.816;-0.026;2022-08-19T08:52:46;100807.31;;;30.39;26.29
69239;BME280;56349;51.816;-0.026;2022-08-19T08:55:14;100810.27;;;30.43;26.31
69239;BME280;56349;51.816;-0.026;2022-08-19T08:57:39;100810.90;;;30.47;26.32
69239;BME280;56349;51.816;-0.026;2022-08-19T09:00:06;100800.81;;;30.47;26.15
69239;BME280;56349;51.816;-0.026;2022-08-19T09:02:26;100802.91;;;30.70;26.10
69239;BME280;56349;51.816;-0.026;2022-08-19T09:04:54;100802.82;;;30.37;26.08
69239;BME280;56349;51.816;-0.026;2022-08-19T09:07:28;100808.38;;;30.27;26.14
69239;BME280;56349;51.816;-0.026;2022-08-19T09:09:46;100800.46;;;30.40;26.19
69239;BME280;56349;51.816;-0.026;2022-08-19T09:12:15;100798.56;;;30.27;26.30
69239;BME280;56349;51.816;-0.026;2022-08-19T09:14:41;100795.29;;;30.07;26.47
69239;BME280;56349;51.816;-0.026;2022-08-19T09:17:00;100804.51;;;30.13;26.56
69239;BME280;56349;51.816;-0.026;2022-08-19T09:19:26;100801.53;;;29.74;26.64
69239;BME280;56349;51.816;-0.026;2022-08-19T09:21:52;100792.63;;;29.99;26.70
69239;BME280;56349;51.816;-0.026;2022-08-19T09:24:18;100791.31;;;29.44;26.60
69239;BME280;56349;51.816;-0.026;2022-08-19T09:26:44;100790.97;;;29.47;26.50
69239;BME280;56349;51.816;-0.026;2022-08-19T09:29:10;100787.74;;;29.27;26.68
69239;BME280;56349;51.816;-0.026;2022-08-19T09:31:36;100789.00;;;29.12;26.96
69239;BME280;56349;51.816;-0.026;2022-08-19T09:34:02;100791.83;;;29.20;27.18
69239;BME280;56349;51.816;-0.026;2022-08-19T09:36:28;100790.35;;;29.32;27.24
69239;BME280;56349;51.816;-0.026;2022-08-19T09:38:54;100788.37;;;28.74;27.01
69239;BME280;56349;51.816;-0.026;2022-08-19T09:41:20;100791.02;;;29.06;27.00
69239;BME280;56349;51.816;-0.026;2022-08-19T09:43:46;100792.35;;;28.75;26.98
69239;BME280;56349;51.816;-0.026;2022-08-19T09:46:09;100802.70;;;28.90;26.79
69239;BME280;56349;51.816;-0.026;2022-08-19T09:48:34;100810.42;;;28.67;26.74
69239;BME280;56349;51.816;-0.026;2022-08-19T09:51:04;100806.16;;;28.96;26.83
69239;BME280;56349;51.816;-0.026;2022-08-19T09:53:26;100806.62;;;28.63;26.87
69239;BME280;56349;51.816;-0.026;2022-08-19T09:55:51;100802.84;;;28.77;26.73
69239;BME280;56349;51.816;-0.026;2022-08-19T09:58:17;100803.66;;;29.36;26.59
69239;BME280;56349;51.816;-0.026;2022-08-19T10:00:43;100801.29;;;29.06;26.47
69239;BME280;56349;51.816;-0.026;2022-08-19T10:03:09;100807.66;;;29.20;26.41
69239;BME280;56349;51.816;-0.026;2022-08-19T10:05:35;100802.12;;;29.35;26.30
69239;BME280;56349;51.816;-0.026;2022-08-19T10:08:02;100810.27;;;29.49;26.30
69239;BME280;56349;51.816;-0.026;2022-08-19T10:10:27;100802.34;;;29.36;26.24
69239;BME280;56349;51.816;-0.026;2022-08-19T10:12:52;100794.65;;;29.51;26.18
69239;BME280;56349;51.816;-0.026;2022-08-19T10:15:18;100798.33;;;29.65;26.15
69239;BME280;56349;51.816;-0.026;2022-08-19T10:17:44;100798.29;;;29.82;26.12
69239;BME280;56349;51.816;-0.026;2022-08-19T10:20:10;100808.06;;;29.73;26.03
69239;BME280;56349;51.816;-0.026;2022-08-19T10:22:35;100808.14;;;29.87;25.77
69239;BME280;56349;51.816;-0.026;2022-08-19T10:25:01;100811.04;;;29.72;25.68
69239;BME280;56349;51.816;-0.026;2022-08-19T10:27:26;100811.22;;;30.09;25.53
69239;BME280;56349;51.816;-0.026;2022-08-19T10:29:53;100814.63;;;30.43;25.55
69239;BME280;56349;51.816;-0.026;2022-08-19T10:32:19;100800.37;;;30.32;25.33
69239;BME280;56349;51.816;-0.026;2022-08-19T10:34:45;100809.30;;;30.41;25.24
69239;BME280;56349;51.816;-0.026;2022-08-19T10:37:11;100797.76;;;30.24;25.08
69239;BME280;56349;51.816;-0.026;2022-08-19T10:39:37;100809.33;;;30.30;24.93
69239;BME280;56349;51.816;-0.026;2022-08-19T10:42:05;100804.08;;;30.13;24.82
69239;BME280;56349;51.816;-0.026;2022-08-19T10:44:29;100805.54;;;30.44;24.47
69239;BME280;56349;51.816;-0.026;2022-08-19T10:46:55;100808.58;;;30.49;24.31
69239;BME280;56349;51.816;-0.026;2022-08-19T10:49:21;100800.47;;;30.77;24.06
69239;BME280;56349;51.816;-0.026;2022-08-19T10:51:47;100807.16;;;30.26;24.01
69239;BME280;56349;51.816;-0.026;2022-08-19T10:54:13;100805.88;;;30.64;23.85
69239;BME280;56349;51.816;-0.026;2022-08-19T10:56:39;100804.18;;;30.55;23.88
69239;BME280;56349;51.816;-0.026;2022-08-19T10:59:05;100800.56;;;30.40;24.06
69239;BME280;56349;51.816;-0.026;2022-08-19T11:01:32;100806.56;;;30.24;24.23
69239;BME280;56349;51.816;-0.026;2022-08-19T11:03:56;100812.61;;;30.07;24.30
69239;BME280;56349;51.816;-0.026;2022-08-19T11:06:21;100811.87;;;29.89;24.22
69239;BME280;56349;51.816;-0.026;2022-08-19T11:08:47;100817.68;;;29.91;24.12
69239;BME280;56349;51.816;-0.026;2022-08-19T11:11:13;100809.09;;;29.74;24.17
69239;BME280;56349;51.816;-0.026;2022-08-19T11:13:41;100814.34;;;29.85;24.42
69239;BME280;56349;51.816;-0.026;2022-08-19T11:16:07;100812.44;;;29.69;24.48
69239;BME280;56349;51.816;-0.026;2022-08-19T11:18:31;100813.41;;;29.48;24.62
69239;BME280;56349;51.816;-0.026;2022-08-19T11:21:06;100817.52;;;29.25;24.73
69239;BME280;56349;51.816;-0.026;2022-08-19T11:23:22;100821.93;;;29.07;24.70
69239;BME280;56349;51.816;-0.026;2022-08-19T11:25:49;100818.76;;;29.17;24.76
69239;BME280;56349;51.816;-0.026;2022-08-19T11:28:14;100825.28;;;28.87;24.84
69239;BME280;56349;51.816;-0.026;2022-08-19T11:30:40;100827.61;;;28.77;24.85
69239;BME280;56349;51.816;-0.026;2022-08-19T11:33:06;100833.07;;;29.15;25.03
69239;BME280;56349;51.816;-0.026;2022-08-19T11:35:32;100831.18;;;28.66;25.18
69239;BME280;56349;51.816;-0.026;2022-08-19T11:37:58;100835.28;;;29.08;25.34
69239;BME280;56349;51.816;-0.026;2022-08-19T11:40:24;100833.42;;;28.86;25.28
69239;BME280;56349;51.816;-0.026;2022-08-19T11:42:50;100836.40;;;29.16;25.33
69239;BME280;56349;51.816;-0.026;2022-08-19T11:45:16;100841.69;;;28.83;24.86
69239;BME280;56349;51.816;-0.026;2022-08-19T11:47:42;100847.39;;;29.39;24.84
69239;BME280;56349;51.816;-0.026;2022-08-19T11:50:08;100852.36;;;29.10;24.49
69239;BME280;56349;51.816;-0.026;2022-08-19T11:52:33;100848.20;;;29.29;24.12
69239;BME280;56349;51.816;-0.026;2022-08-19T11:54:58;100845.33;;;29.22;23.84
69239;BME280;56349;51.816;-0.026;2022-08-19T11:57:24;100848.65;;;29.41;23.35
69239;BME280;56349;51.816;-0.026;2022-08-19T11:59:51;100853.36;;;29.55;22.98
69239;BME280;56349;51.816;-0.026;2022-08-19T12:02:16;100846.08;;;29.46;22.72
69239;BME280;56349;51.816;-0.026;2022-08-19T12:04:42;100850.66;;;29.55;22.56
69239;BME280;56349;51.816;-0.026;2022-08-19T12:07:08;100846.89;;;29.89;22.48
69239;BME280;56349;51.816;-0.026;2022-08-19T12:09:34;100842.96;;;29.82;22.36
69239;BME280;56349;51.816;-0.026;2022-08-19T12:14:25;100850.05;;;30.10;22.15
69239;BME280;56349;51.816;-0.026;2022-08-19T12:16:51;100845.28;;;30.57;21.87
69239;BME280;56349;51.816;-0.026;2022-08-19T12:19:17;100845.85;;;30.63;21.55
69239;BME280;56349;51.816;-0.026;2022-08-19T12:21:42;100849.11;;;30.61;21.50
69239;BME280;56349;51.816;-0.026;2022-08-19T12:24:08;100842.42;;;30.57;21.17
69239;BME280;56349;51.816;-0.026;2022-08-19T12:26:34;100851.21;;;30.30;21.10
69239;BME280;56349;51.816;-0.026;2022-08-19T12:28:59;100843.55;;;30.32;21.01
69239;BME280;56349;51.816;-0.026;2022-08-19T12:31:24;100839.89;;;30.61;20.86
69239;BME280;56349;51.816;-0.026;2022-08-19T12:33:51;100842.69;;;30.39;20.79
69239;BME280;56349;51.816;-0.026;2022-08-19T12:36:16;100850.44;;;30.45;20.73